createdAt,value
2019-04-11T00:00:01.415Z,74.53
2019-04-11T00:02:33.131Z,105.87
2019-04-11T00:05:06.323Z,102.87
2019-04-11T00:07:38.568Z,78.00
2019-04-11T00:10:10.362Z,70.37
2019-04-11T00:12:42.981Z,64.67
2019-04-11T00:15:14.567Z,55.23
2019-04-11T00:17:46.056Z,69.93
2019-04-11T00:20:18.677Z,63.93
2019-04-11T00:22:51.293Z,59.67
2019-04-11T00:25:23.222Z,64.93
2019-04-11T00:27:54.828Z,64.93
2019-04-11T00:30:26.203Z,72.03
2019-04-11T00:32:58.218Z,66.73
2019-04-11T00:35:29.507Z,67.73
2019-04-11T00:38:01.427Z,69.90
2019-04-11T00:40:33.290Z,67.03
2019-04-11T00:43:05.228Z,67.63
2019-04-11T00:45:38.150Z,66.20
2019-04-11T00:48:09.943Z,65.07
2019-04-11T00:50:41.659Z,66.57
2019-04-11T00:53:13.931Z,56.47
2019-04-11T00:55:46.004Z,61.93
2019-04-11T00:58:17.392Z,67.63
2019-04-11T01:00:48.263Z,55.27
2019-04-11T01:03:20.227Z,62.40
2019-04-11T01:05:52.003Z,68.77
2019-04-11T01:08:23.967Z,72.50
2019-04-11T01:10:57.397Z,72.70
2019-04-11T01:13:40.582Z,64.27
2019-04-11T01:16:05.042Z,65.17
2019-04-11T01:18:38.228Z,64.50
2019-04-11T01:21:10.380Z,55.33
2019-04-11T01:23:42.922Z,60.90
2019-04-11T01:26:14.911Z,59.20
2019-04-11T01:28:46.992Z,53.40
2019-04-11T01:31:21.635Z,63.63
2019-04-11T01:33:53.837Z,52.07
2019-04-11T01:36:26.745Z,55.40
2019-04-11T01:39:01.384Z,59.17
2019-04-11T01:41:34.349Z,60.73
2019-04-11T01:44:09.382Z,59.83
2019-04-11T01:46:42.350Z,53.63
2019-04-11T01:49:17.909Z,53.90
2019-04-11T01:51:49.754Z,54.93
2019-04-11T01:54:21.809Z,56.80
2019-04-11T01:56:53.681Z,55.27
2019-04-11T01:59:27.022Z,59.80
2019-04-11T02:02:01.140Z,57.73
2019-04-11T02:04:34.515Z,53.33
2019-04-11T02:07:06.637Z,56.27
2019-04-11T02:09:38.410Z,46.07
2019-04-11T02:12:09.948Z,46.00
2019-04-11T02:14:41.745Z,42.63
2019-04-11T02:17:14.729Z,41.13
2019-04-11T02:19:46.149Z,45.00
2019-04-11T02:22:18.682Z,45.53
2019-04-11T02:24:52.241Z,40.30
2019-04-11T02:27:26.006Z,39.83
2019-04-11T02:29:58.539Z,35.03
2019-04-11T02:32:31.809Z,43.77
2019-04-11T02:35:05.193Z,44.93
2019-04-11T02:37:35.727Z,32.27
2019-04-11T02:40:08.936Z,45.10
2019-04-11T02:42:41.165Z,35.20
2019-04-11T02:45:24.980Z,37.20
2019-04-11T02:47:48.461Z,38.33
2019-04-11T02:50:21.978Z,35.33
2019-04-11T02:52:53.147Z,41.77
2019-04-11T02:55:25.204Z,31.73
2019-04-11T02:57:59.126Z,40.33
2019-04-11T03:00:31.076Z,31.27
2019-04-11T03:03:03.661Z,32.97
2019-04-11T03:05:37.536Z,44.40
2019-04-11T03:08:12.136Z,39.57
2019-04-11T03:10:43.004Z,31.07
2019-04-11T03:13:16.770Z,34.87
2019-04-11T03:16:00.062Z,32.70
2019-04-11T03:18:40.773Z,40.77
2019-04-11T03:20:59.833Z,33.73
2019-04-11T03:23:28.560Z,26.70
2019-04-11T03:26:00.698Z,31.30
2019-04-11T03:28:34.019Z,33.73
2019-04-11T03:31:42.212Z,38.17
2019-04-11T03:34:44.582Z,35.93
2019-04-11T03:37:08.735Z,25.77
2019-04-11T03:39:13.097Z,38.63
2019-04-11T03:41:38.508Z,32.70
2019-04-11T03:44:00.367Z,29.03
2019-04-11T03:46:43.342Z,33.90
2019-04-11T03:49:16.922Z,33.67
2019-04-11T03:51:36.479Z,31.30
2019-04-11T03:54:09.721Z,35.90
2019-04-11T03:56:41.406Z,33.17
2019-04-11T03:59:16.463Z,29.60
2019-04-11T04:01:48.728Z,27.57
2019-04-11T04:04:21.819Z,26.43
2019-04-11T04:06:55.190Z,28.73
2019-04-11T04:09:28.647Z,30.97
2019-04-11T04:12:00.378Z,35.00
2019-04-11T04:14:34.530Z,32.67
2019-04-11T04:17:08.430Z,25.33
2019-04-11T04:19:40.983Z,30.33
2019-04-11T04:22:15.910Z,25.07
2019-04-11T04:24:49.107Z,22.83
2019-04-11T04:27:23.281Z,29.20
2019-04-11T04:29:57.753Z,24.10
2019-04-11T04:32:28.082Z,21.07
2019-04-11T04:35:01.125Z,25.97
2019-04-11T04:37:34.759Z,26.90
2019-04-11T04:40:23.857Z,30.97
2019-04-11T04:42:46.647Z,27.33
2019-04-11T04:45:16.229Z,28.00
2019-04-11T04:47:51.961Z,32.93
2019-04-11T04:50:20.124Z,28.30
2019-04-11T04:52:53.464Z,30.47
2019-04-11T04:55:25.973Z,33.63
2019-04-11T04:57:59.443Z,24.37
2019-04-11T05:00:32.030Z,25.20
2019-04-11T05:03:05.497Z,29.90
2019-04-11T05:05:38.331Z,34.90
2019-04-11T05:08:11.120Z,36.37
2019-04-11T05:10:42.587Z,36.50
2019-04-11T05:13:15.686Z,28.17
2019-04-11T05:15:48.976Z,27.77
2019-04-11T05:18:23.759Z,26.20
2019-04-11T05:20:55.403Z,29.70
2019-04-11T05:23:27.671Z,19.10
2019-04-11T05:26:00.166Z,23.73
2019-04-11T05:28:32.815Z,23.67
2019-04-11T05:31:04.208Z,26.50
2019-04-11T05:33:35.562Z,17.17
2019-04-11T05:36:07.907Z,19.13
2019-04-11T05:38:39.228Z,20.07
2019-04-11T05:41:12.227Z,17.70
2019-04-11T05:43:43.272Z,14.40
2019-04-11T05:46:26.081Z,14.83
2019-04-11T05:48:50.640Z,15.70
2019-04-11T05:51:23.823Z,16.27
2019-04-11T05:53:57.758Z,18.80
2019-04-11T05:56:30.514Z,16.80
2019-04-11T05:59:03.584Z,14.47
2019-04-11T06:01:39.914Z,10.90
2019-04-11T06:04:20.311Z,22.93
2019-04-11T06:06:50.647Z,19.90
2019-04-11T06:09:23.412Z,16.60
2019-04-11T06:11:57.266Z,17.00
2019-04-11T06:14:29.341Z,17.87
2019-04-11T06:17:02.115Z,18.13
2019-04-11T06:19:34.703Z,12.80
2019-04-11T06:22:08.686Z,13.43
2019-04-11T06:24:42.606Z,16.13
2019-04-11T06:27:16.699Z,20.83
2019-04-11T06:29:50.721Z,14.80
2019-04-11T06:32:23.789Z,39.07
2019-04-11T06:34:57.694Z,39.20
2019-04-11T06:37:30.547Z,15.67
2019-04-11T06:40:04.188Z,11.90
2019-04-11T06:42:37.659Z,17.70
2019-04-11T06:45:11.286Z,40.43
2019-04-11T06:47:45.086Z,46.37
2019-04-11T06:50:17.787Z,15.90
2019-04-11T06:52:49.427Z,7.27
2019-04-11T06:55:22.870Z,7.57
2019-04-11T06:57:56.374Z,31.60
2019-04-11T07:00:29.307Z,21.13
2019-04-11T07:03:03.517Z,8.13
2019-04-11T07:05:36.368Z,14.40
2019-04-11T07:08:07.723Z,10.97
2019-04-11T07:10:40.458Z,7.93
2019-04-11T07:13:12.910Z,9.27
2019-04-11T07:15:46.468Z,10.53
2019-04-11T07:18:18.939Z,8.03
2019-04-11T07:20:52.379Z,10.50
2019-04-11T07:23:26.357Z,25.87
2019-04-11T07:26:00.301Z,18.53
2019-04-11T07:28:33.689Z,7.07
2019-04-11T07:31:06.870Z,8.83
2019-04-11T07:33:40.846Z,9.00
2019-04-11T07:36:14.655Z,8.03
2019-04-11T07:38:50.828Z,5.80
2019-04-11T07:41:23.943Z,7.73
2019-04-11T07:43:56.534Z,7.50
2019-04-11T07:46:29.018Z,6.20
2019-04-11T07:49:01.503Z,8.60
2019-04-11T07:51:34.301Z,6.83
2019-04-11T07:54:06.211Z,8.90
2019-04-11T07:56:39.349Z,5.33
2019-04-11T07:59:12.906Z,5.20
2019-04-11T08:01:46.867Z,5.87
2019-04-11T08:04:19.715Z,8.67
2019-04-11T08:07:02.176Z,7.00
2019-04-11T08:09:34.240Z,8.53
2019-04-11T08:12:08.668Z,4.17
2019-04-11T08:14:42.526Z,5.10
2019-04-11T08:17:38.552Z,4.80
2019-04-11T08:20:13.139Z,11.30
2019-04-11T08:22:49.610Z,6.90
2019-04-11T08:25:23.020Z,3.27
2019-04-11T08:28:00.712Z,7.30
2019-04-11T08:30:32.842Z,2.77
2019-04-11T08:33:07.499Z,5.77
2019-04-11T08:35:42.049Z,21.97
2019-04-11T08:38:18.362Z,27.10
2019-04-11T08:40:53.265Z,8.10
2019-04-11T08:43:26.914Z,19.33
2019-04-11T08:46:00.820Z,8.73
2019-04-11T08:48:35.165Z,16.97
2019-04-11T08:51:09.688Z,7.37
2019-04-11T08:53:42.846Z,6.17
2019-04-11T08:56:15.924Z,5.00
2019-04-11T08:58:51.468Z,7.80
2019-04-11T09:01:24.770Z,4.30
2019-04-11T09:04:05.186Z,9.40
2019-04-11T09:06:32.956Z,12.70
2019-04-11T09:09:07.421Z,6.97
2019-04-11T09:11:42.751Z,7.87
2019-04-11T09:14:18.606Z,13.93
2019-04-11T09:16:52.207Z,7.07
2019-04-11T09:19:25.755Z,6.73
2019-04-11T09:22:07.278Z,10.00
2019-04-11T09:24:41.110Z,5.70
2019-04-11T09:27:14.280Z,5.57
2019-04-11T09:29:54.530Z,7.53
2019-04-11T09:32:30.177Z,5.33
2019-04-11T09:35:04.565Z,2.83
2019-04-11T09:37:36.117Z,2.77
2019-04-11T09:40:09.951Z,3.13
2019-04-11T09:42:43.136Z,3.30
2019-04-11T09:45:15.521Z,3.80
2019-04-11T09:47:49.830Z,2.30
2019-04-11T09:50:22.429Z,5.77
2019-04-11T09:52:55.948Z,6.20
2019-04-11T09:55:26.616Z,7.40
2019-04-11T09:58:00.937Z,8.10
2019-04-11T10:00:32.854Z,5.10
2019-04-11T10:03:06.516Z,3.00
2019-04-11T10:05:40.537Z,3.03
2019-04-11T10:08:14.752Z,9.83
2019-04-11T10:10:48.937Z,9.23
2019-04-11T10:13:21.473Z,23.93
2019-04-11T10:15:55.625Z,29.83
2019-04-11T10:18:33.706Z,49.90
2019-04-11T10:21:04.845Z,8.83
2019-04-11T10:23:37.276Z,45.63
2019-04-11T10:26:08.056Z,6.53
2019-04-11T10:28:41.704Z,5.30
2019-04-11T10:31:12.720Z,11.50
2019-04-11T10:33:45.537Z,18.80
2019-04-11T10:36:18.964Z,4.87
2019-04-11T10:38:51.681Z,39.70
2019-04-11T10:41:25.191Z,12.70
2019-04-11T10:43:57.172Z,5.20
2019-04-11T10:46:33.474Z,5.77
2019-04-11T10:49:07.477Z,3.37
2019-04-11T10:51:40.882Z,6.10
2019-04-11T10:54:16.585Z,4.63
2019-04-11T10:57:05.616Z,5.17
2019-04-11T10:59:44.886Z,6.17
2019-04-11T11:02:17.872Z,6.93
2019-04-11T11:04:52.577Z,3.50
2019-04-11T11:07:24.824Z,4.03
2019-04-11T11:09:58.730Z,4.83
2019-04-11T11:12:33.009Z,3.60
2019-04-11T11:15:07.897Z,4.97
2019-04-11T11:18:21.713Z,5.27
2019-04-11T11:20:36.347Z,6.23
2019-04-11T11:23:10.929Z,8.60
2019-04-11T11:25:48.543Z,9.80
2019-04-11T11:28:21.514Z,83.97
2019-04-11T11:30:54.439Z,5.53
2019-04-11T11:33:27.983Z,52.87
2019-04-11T11:36:03.278Z,5.20
2019-04-11T11:38:37.697Z,13.90
2019-04-11T11:41:12.133Z,12.77
2019-04-11T11:43:45.408Z,23.97
2019-04-11T11:46:19.341Z,11.17
2019-04-11T11:48:54.155Z,12.37
2019-04-11T11:51:29.600Z,18.07
2019-04-11T11:54:02.990Z,11.23
2019-04-11T11:56:36.207Z,9.37
2019-04-11T11:59:11.156Z,5.93
2019-04-11T12:01:48.027Z,9.60
2019-04-11T12:04:19.624Z,12.37
2019-04-11T12:06:56.761Z,48.63
2019-04-11T12:09:26.677Z,11.70
2019-04-11T12:12:00.167Z,7.40
2019-04-11T12:14:35.226Z,5.07
2019-04-11T12:17:08.554Z,4.93
2019-04-11T12:19:51.136Z,4.63
2019-04-11T12:22:20.021Z,4.13
2019-04-11T12:24:56.448Z,6.37
2019-04-11T12:27:29.560Z,6.10
2019-04-11T12:30:13.559Z,8.70
2019-04-11T12:32:55.115Z,5.03
2019-04-11T12:35:29.076Z,16.43
2019-04-11T12:38:01.646Z,26.07
2019-04-11T12:40:34.607Z,5.30
2019-04-11T12:43:07.559Z,11.60
2019-04-11T12:45:40.441Z,10.43
2019-04-11T12:48:13.666Z,6.77
2019-04-11T12:50:46.884Z,8.90
2019-04-11T12:53:19.345Z,4.10
2019-04-11T12:55:52.074Z,4.10
2019-04-11T12:58:25.247Z,3.87
2019-04-11T13:00:58.301Z,4.47
2019-04-11T13:03:40.540Z,3.80
2019-04-11T13:06:14.249Z,8.33
2019-04-11T13:08:48.887Z,4.70
2019-04-11T13:11:22.160Z,8.03
2019-04-11T13:13:54.847Z,8.53
2019-04-11T13:16:27.799Z,8.53
2019-04-11T13:19:00.492Z,7.00
2019-04-11T13:21:33.471Z,8.50
2019-04-11T13:24:06.321Z,9.07
2019-04-11T13:26:40.342Z,7.90
2019-04-11T13:29:13.700Z,16.43
2019-04-11T13:31:46.480Z,12.67
2019-04-11T13:34:22.294Z,12.23
2019-04-11T13:36:55.224Z,17.27
2019-04-11T13:39:28.101Z,11.40
2019-04-11T13:42:02.137Z,8.73
2019-04-11T13:44:37.731Z,7.07
2019-04-11T13:47:10.706Z,16.47
2019-04-11T13:49:44.436Z,6.87
2019-04-11T13:52:18.743Z,10.70
2019-04-11T13:54:57.342Z,6.93
2019-04-11T13:57:30.538Z,31.60
2019-04-11T14:00:09.649Z,15.00
2019-04-11T14:02:51.132Z,12.07
2019-04-11T14:05:20.785Z,14.67
2019-04-11T14:07:54.236Z,7.33
2019-04-11T14:10:31.368Z,5.37
2019-04-11T14:13:04.090Z,6.77
2019-04-11T14:15:40.529Z,7.73
2019-04-11T14:18:13.280Z,12.97
2019-04-11T14:20:50.049Z,18.50
2019-04-11T14:23:25.514Z,15.17
2019-04-11T14:26:02.464Z,5.57
2019-04-11T14:28:39.752Z,5.17
2019-04-11T14:31:13.007Z,11.30
2019-04-11T14:33:48.356Z,10.90
2019-04-11T14:36:33.090Z,18.70
2019-04-11T14:39:01.651Z,16.90
2019-04-11T14:41:37.312Z,14.93
2019-04-11T14:44:15.807Z,16.73
2019-04-11T14:46:49.889Z,8.53
2019-04-11T14:49:23.186Z,9.73
2019-04-11T14:51:58.955Z,10.60
2019-04-11T14:54:32.379Z,12.33
2019-04-11T14:57:05.492Z,13.23
2019-04-11T14:59:39.126Z,14.83
2019-04-11T15:02:12.981Z,13.13
2019-04-11T15:04:46.130Z,14.70
2019-04-11T15:07:19.649Z,8.00
2019-04-11T15:09:53.089Z,10.23
2019-04-11T15:12:26.353Z,12.33
2019-04-11T15:14:57.107Z,7.87
2019-04-11T15:17:30.061Z,11.03
2019-04-11T15:20:03.282Z,6.70
2019-04-11T15:22:39.312Z,9.00
2019-04-11T15:25:13.913Z,8.33
2019-04-11T15:28:13.169Z,7.17
2019-04-11T15:30:49.773Z,13.80
2019-04-11T15:33:23.149Z,6.10
2019-04-11T15:35:58.031Z,7.03
2019-04-11T15:38:30.616Z,9.20
2019-04-11T15:41:05.675Z,10.70
2019-04-11T15:43:46.212Z,11.03
2019-04-11T15:46:21.492Z,7.10
2019-04-11T15:48:55.733Z,13.03
2019-04-11T15:51:30.371Z,10.07
2019-04-11T15:54:06.907Z,10.50
2019-04-11T15:56:41.915Z,11.00
2019-04-11T15:59:13.145Z,7.23
2019-04-11T16:01:46.910Z,71.43
2019-04-11T16:04:19.752Z,85.63
2019-04-11T16:06:54.298Z,96.50
2019-04-11T16:09:26.500Z,39.93
2019-04-11T16:11:59.665Z,15.73
2019-04-11T16:14:31.614Z,12.73
2019-04-11T16:17:05.347Z,26.40
2019-04-11T16:19:38.403Z,37.80
2019-04-11T16:22:11.142Z,23.00
2019-04-11T16:24:44.104Z,24.93
2019-04-11T16:27:18.001Z,19.47
2019-04-11T16:29:53.071Z,67.43
2019-04-11T16:32:26.553Z,33.10
2019-04-11T16:34:59.680Z,23.00
2019-04-11T16:37:31.330Z,28.60
2019-04-11T16:40:04.383Z,34.47
2019-04-11T16:42:36.801Z,31.60
2019-04-11T16:45:10.581Z,24.13
2019-04-11T16:47:43.706Z,22.03
2019-04-11T16:50:14.940Z,20.43
2019-04-11T16:52:46.310Z,21.47
2019-04-11T16:55:18.065Z,37.67
2019-04-11T16:58:01.176Z,20.67
2019-04-11T17:00:52.113Z,31.77
2019-04-11T17:03:24.822Z,39.77
2019-04-11T17:05:55.903Z,39.43
2019-04-11T17:08:29.182Z,46.20
2019-04-11T17:11:02.641Z,26.03
2019-04-11T17:13:34.831Z,25.70
2019-04-11T17:16:08.100Z,33.40
2019-04-11T17:18:39.788Z,33.00
2019-04-11T17:21:11.439Z,27.70
2019-04-11T17:23:46.889Z,28.57
2019-04-11T17:26:15.757Z,27.13
2019-04-11T17:28:47.827Z,25.33
2019-04-11T17:31:19.447Z,30.87
2019-04-11T17:33:50.866Z,18.93
2019-04-11T17:36:23.073Z,14.80
2019-04-11T17:38:54.587Z,62.00
2019-04-11T17:41:26.257Z,63.60
2019-04-11T17:43:58.818Z,36.20
2019-04-11T17:46:30.075Z,38.87
2019-04-11T17:49:01.651Z,63.17
2019-04-11T17:51:34.790Z,90.97
2019-04-11T17:54:06.193Z,47.30
2019-04-11T17:56:38.030Z,34.60
2019-04-11T17:59:12.042Z,25.87
2019-04-11T18:01:42.412Z,24.10
2019-04-11T18:04:14.164Z,17.43
2019-04-11T18:06:47.246Z,17.83
2019-04-11T18:09:20.475Z,17.97
2019-04-11T18:11:55.863Z,23.80
2019-04-11T18:14:24.332Z,15.03
2019-04-11T18:16:56.013Z,17.33
2019-04-11T18:19:27.741Z,16.37
2019-04-11T18:22:07.683Z,17.90
2019-04-11T18:24:34.562Z,15.37
2019-04-11T18:27:05.803Z,16.97
2019-04-11T18:29:39.579Z,19.47
2019-04-11T18:32:12.035Z,17.67
2019-04-11T18:34:43.491Z,14.10
2019-04-11T18:37:16.210Z,18.90
2019-04-11T18:39:48.241Z,14.33
2019-04-11T18:42:20.433Z,12.23
2019-04-11T18:44:54.336Z,16.03
2019-04-11T18:47:26.710Z,13.77
2019-04-11T18:50:00.750Z,11.27
2019-04-11T18:52:34.634Z,13.83
2019-04-11T18:55:08.346Z,7.23
2019-04-11T18:57:40.105Z,12.07
2019-04-11T19:00:14.179Z,12.60
2019-04-11T19:02:47.588Z,12.10
2019-04-11T19:05:28.205Z,13.57
2019-04-11T19:07:52.767Z,12.87
2019-04-11T19:10:24.719Z,12.97
2019-04-11T19:12:56.528Z,11.83
2019-04-11T19:15:29.191Z,12.27
2019-04-11T19:18:06.560Z,12.93
2019-04-11T19:20:34.113Z,11.67
2019-04-11T19:23:08.593Z,14.93
2019-04-11T19:25:44.500Z,14.63
2019-04-11T19:28:25.839Z,16.23
2019-04-11T19:31:04.005Z,17.20
2019-04-11T19:33:36.761Z,25.70
2019-04-11T19:36:09.997Z,18.57
2019-04-11T19:38:43.298Z,14.23
2019-04-11T19:41:17.997Z,10.30
2019-04-11T19:43:50.726Z,13.63
2019-04-11T19:46:22.098Z,14.03
2019-04-11T19:48:57.039Z,9.87
2019-04-11T19:51:29.081Z,11.07
2019-04-11T19:54:03.839Z,11.17
2019-04-11T19:56:43.166Z,11.77
2019-04-11T19:59:17.525Z,11.50
2019-04-11T20:01:53.203Z,12.80
2019-04-11T20:04:25.204Z,15.30
2019-04-11T20:06:56.843Z,14.87
2019-04-11T20:09:29.852Z,10.03
2019-04-11T20:12:01.684Z,15.27
2019-04-11T20:14:35.069Z,15.53
2019-04-11T20:17:05.784Z,11.20
2019-04-11T20:19:37.044Z,10.73
2019-04-11T20:22:09.265Z,11.13
2019-04-11T20:24:45.963Z,11.00
2019-04-11T20:27:14.264Z,10.73
2019-04-11T20:29:56.951Z,14.77
2019-04-11T20:32:33.991Z,14.53
2019-04-11T20:35:09.381Z,9.13
2019-04-11T20:37:48.267Z,9.90
2019-04-11T20:40:23.323Z,8.67
2019-04-11T20:42:57.794Z,8.70
2019-04-11T20:45:30.963Z,8.10
2019-04-11T20:48:02.164Z,9.20
2019-04-11T20:50:33.562Z,13.87
2019-04-11T20:53:12.654Z,9.67
2019-04-11T20:55:39.909Z,10.40
2019-04-11T20:58:11.824Z,10.50
2019-04-11T21:00:50.137Z,8.63
2019-04-11T21:03:18.731Z,9.37
2019-04-11T21:05:49.592Z,8.93
2019-04-11T21:08:20.695Z,9.40
2019-04-11T21:10:51.605Z,11.73
2019-04-11T21:13:23.463Z,18.13
2019-04-11T21:15:56.343Z,8.67
2019-04-11T21:18:27.726Z,8.43
2019-04-11T21:20:58.670Z,8.50
2019-04-11T21:23:30.301Z,8.80
2019-04-11T21:26:01.813Z,8.93
2019-04-11T21:28:33.403Z,8.87
2019-04-11T21:31:05.507Z,8.97
2019-04-11T21:33:36.293Z,9.53
2019-04-11T21:36:07.185Z,8.67
2019-04-11T21:38:38.221Z,8.43
2019-04-11T21:41:09.331Z,8.87
2019-04-11T21:43:40.407Z,8.03
2019-04-11T21:46:12.219Z,9.23
2019-04-11T21:48:42.886Z,7.40
2019-04-11T21:51:14.397Z,9.27
2019-04-11T21:53:46.143Z,10.23
2019-04-11T21:56:18.627Z,7.33
2019-04-11T21:58:50.751Z,8.80
2019-04-11T22:01:24.858Z,9.73
2019-04-11T22:03:57.975Z,9.87
2019-04-11T22:06:30.532Z,11.17
2019-04-11T22:09:04.851Z,8.63
2019-04-11T22:11:38.458Z,8.93
2019-04-11T22:14:11.319Z,10.03
2019-04-11T22:16:45.121Z,11.50
2019-04-11T22:19:16.724Z,7.97
2019-04-11T22:21:48.223Z,8.37
2019-04-11T22:24:19.444Z,7.50
2019-04-11T22:26:51.226Z,14.27
2019-04-11T22:29:25.032Z,12.93
2019-04-11T22:31:56.571Z,12.83
2019-04-11T22:34:29.558Z,9.93
2019-04-11T22:37:00.976Z,8.70
2019-04-11T22:39:34.031Z,8.63
2019-04-11T22:42:06.492Z,8.67
2019-04-11T22:44:40.867Z,8.67
2019-04-11T22:47:12.839Z,11.60
2019-04-11T22:49:44.196Z,13.17
2019-04-11T22:52:15.360Z,9.80
2019-04-11T22:54:47.497Z,8.93
2019-04-11T22:57:19.695Z,10.10
2019-04-11T22:59:51.136Z,10.83
2019-04-11T23:02:28.188Z,7.53
2019-04-11T23:04:59.502Z,9.37
2019-04-11T23:07:31.256Z,8.57
2019-04-11T23:10:03.031Z,10.53
2019-04-11T23:12:34.645Z,8.10
2019-04-11T23:15:07.811Z,6.87
2019-04-11T23:17:41.751Z,6.53
2019-04-11T23:20:14.292Z,10.40
2019-04-11T23:22:46.216Z,6.03
2019-04-11T23:25:19.542Z,8.17
2019-04-11T23:27:51.613Z,11.60
2019-04-11T23:30:23.005Z,5.00
2019-04-11T23:32:54.556Z,5.83
2019-04-11T23:35:25.914Z,8.00
2019-04-11T23:37:57.649Z,6.57
2019-04-11T23:40:29.158Z,6.93
2019-04-11T23:43:01.765Z,6.27
2019-04-11T23:45:33.830Z,5.40
2019-04-11T23:48:05.395Z,5.20
2019-04-11T23:50:36.774Z,3.83
2019-04-11T23:53:08.170Z,3.60
2019-04-11T23:55:39.690Z,4.17
2019-04-11T23:58:10.700Z,5.33
